Time;durP1;ratioP1;P1;durP2;ratioP2;P2;SDS_P1;SDS_P2;PMS_P1;PMS_P2;Temp;Humidity;BMP_temperature;BMP_pressure;BME280_temperature;BME280_humidity;BME280_pressure;Samples;Min_cycle;Max_cycle;Signal;HPM_P1;HPM_P2
2021/07/16 00:02:04;;;;;;;14.10;12.70;;;20.50;1.00;;;;;;5058181;28;21207;-78
2021/07/16 00:04:31;;;;;;;13.20;12.10;;;20.40;1.00;;;;;;5054841;28;20582;-78
2021/07/16 00:06:58;;;;;;;14.23;12.73;;;20.50;1.00;;;;;;5056750;28;20465;-79
2021/07/16 00:09:25;;;;;;;15.10;12.17;;;20.50;1.00;;;;;;5058868;28;20895;-78
2021/07/16 00:11:51;;;;;;;13.50;12.30;;;20.50;1.00;;;;;;5057355;28;20516;-78
2021/07/16 00:14:19;;;;;;;13.93;12.70;;;20.50;1.00;;;;;;5057147;28;20784;-77
2021/07/16 00:16:46;;;;;;;14.00;12.70;;;20.40;1.00;;;;;;5058204;28;20448;-78
2021/07/16 00:19:13;;;;;;;14.47;13.20;;;20.40;1.00;;;;;;5056056;28;20452;-77
2021/07/16 00:21:39;;;;;;;15.60;14.30;;;20.50;1.00;;;;;;5059257;28;20452;-77
2021/07/16 00:24:06;;;;;;;16.90;14.10;;;20.40;1.00;;;;;;5053581;28;21043;-78
2021/07/16 00:26:33;;;;;;;15.70;14.30;;;20.40;1.00;;;;;;5023503;28;20448;-78
2021/07/16 00:29:00;;;;;;;15.33;13.93;;;20.40;1.00;;;;;;5053651;28;20503;-78
2021/07/16 00:31:27;;;;;;;14.57;13.33;;;20.40;1.00;;;;;;5060077;28;20426;-78
2021/07/16 00:33:54;;;;;;;14.73;13.40;;;20.40;1.00;;;;;;5059580;28;20461;-78
2021/07/16 00:36:21;;;;;;;15.30;14.00;;;20.40;1.00;;;;;;5057369;28;20411;-78
2021/07/16 00:38:47;;;;;;;15.40;13.93;;;20.50;1.00;;;;;;5058202;28;20480;-78
2021/07/16 00:41:14;;;;;;;15.53;14.10;;;20.50;1.00;;;;;;5068868;28;20460;-78
2021/07/16 00:43:41;;;;;;;16.30;14.90;;;20.50;1.00;;;;;;5071803;28;20462;-78
2021/07/16 00:46:07;;;;;;;13.93;12.50;;;20.50;1.00;;;;;;5060354;28;20445;-78
2021/07/16 00:48:35;;;;;;;13.70;12.37;;;20.50;1.00;;;;;;5055939;28;20484;-78
2021/07/16 00:51:02;;;;;;;14.57;13.17;;;20.50;1.00;;;;;;5055421;28;20557;-78
2021/07/16 00:53:29;;;;;;;14.67;13.47;;;20.50;1.00;;;;;;5057549;28;20473;-78
2021/07/16 00:55:55;;;;;;;14.90;13.50;;;20.40;1.00;;;;;;5062097;28;20797;-78
2021/07/16 00:58:24;;;;;;;15.23;13.93;;;20.30;1.00;;;;;;5064004;28;20429;-78
2021/07/16 01:00:50;;;;;;;15.67;14.20;;;20.30;1.00;;;;;;5064597;28;20523;-78
2021/07/16 01:03:17;;;;;;;16.40;14.87;;;20.20;1.00;;;;;;5059940;28;20468;-78
2021/07/16 01:05:45;;;;;;;15.47;14.07;;;20.20;1.00;;;;;;5065183;28;21607;-79
2021/07/16 01:08:12;;;;;;;16.10;14.80;;;20.20;1.00;;;;;;5068307;28;20472;-76
2021/07/16 01:10:39;;;;;;;15.73;14.43;;;20.10;1.00;;;;;;5065435;28;21679;-77
2021/07/16 01:13:13;;;;;;;15.50;14.30;;;20.10;1.00;;;;;;5068887;28;20478;-77
2021/07/16 01:15:42;;;;;;;16.07;14.67;;;20.10;1.00;;;;;;5065220;28;20488;-78
2021/07/16 01:18:10;;;;;;;16.60;15.20;;;20.00;1.00;;;;;;5112799;22;20474;-78
2021/07/16 01:20:37;;;;;;;16.37;14.83;;;20.00;1.00;;;;;;5094101;27;20454;-77
2021/07/16 01:23:13;;;;;;;13.70;12.50;;;20.00;1.00;;;;;;5092745;27;20551;-78
2021/07/16 01:25:39;;;;;;;14.73;13.50;;;20.00;1.00;;;;;;5093201;27;20471;-77
2021/07/16 01:28:06;;;;;;;15.70;14.30;;;20.00;1.00;;;;;;5091925;27;20537;-78
2021/07/16 01:30:34;;;;;;;15.43;14.13;;;20.00;1.00;;;;;;5093745;28;20544;-78
2021/07/16 01:33:02;;;;;;;14.40;13.00;;;20.10;1.00;;;;;;5091425;27;21286;-78
2021/07/16 01:35:30;;;;;;;15.93;14.63;;;20.00;1.00;;;;;;5093147;28;20965;-78
2021/07/16 01:37:57;;;;;;;15.30;14.00;;;20.00;1.00;;;;;;5076002;28;21357;-78
2021/07/16 01:40:27;;;;;;;16.80;15.10;;;20.00;1.00;;;;;;5091904;28;20448;-78
2021/07/16 01:42:56;;;;;;;15.20;13.90;;;19.90;1.00;;;;;;5095554;27;20471;-78
2021/07/16 01:45:24;;;;;;;16.17;14.77;;;20.00;1.00;;;;;;5094590;27;20541;-79
2021/07/16 01:47:54;;;;;;;15.70;14.00;;;20.00;1.00;;;;;;5096742;28;20577;-79
2021/07/16 01:50:22;;;;;;;15.90;14.47;;;20.00;1.00;;;;;;5095303;27;20529;-79
2021/07/16 01:52:49;;;;;;;14.93;13.63;;;20.00;1.00;;;;;;5095452;28;20996;-77
2021/07/16 01:55:17;;;;;;;15.57;14.17;;;20.00;1.00;;;;;;5093029;27;20439;-78
2021/07/16 01:57:48;;;;;;;15.80;14.40;;;19.90;1.00;;;;;;5091815;28;20464;-78
2021/07/16 02:00:17;;;;;;;16.40;14.90;;;19.80;1.00;;;;;;5093853;27;20438;-79
2021/07/16 02:02:48;;;;;;;15.10;13.90;;;19.80;1.00;;;;;;5093515;27;20464;-79
2021/07/16 02:05:16;;;;;;;15.60;14.30;;;19.90;1.00;;;;;;5102604;28;20454;-78
2021/07/16 02:07:43;;;;;;;14.50;13.10;;;19.90;1.00;;;;;;5096732;27;21431;-77
2021/07/16 02:10:11;;;;;;;16.90;15.20;;;19.90;1.00;;;;;;5113532;28;20528;-78
2021/07/16 02:12:37;;;;;;;16.63;15.13;;;19.90;1.00;;;;;;5095688;27;20466;-79
2021/07/16 02:15:10;;;;;;;15.37;14.10;;;19.90;1.00;;;;;;5095238;28;20981;-79
2021/07/16 02:17:37;;;;;;;16.17;14.67;;;19.90;1.00;;;;;;5096173;27;20584;-78
2021/07/16 02:20:05;;;;;;;16.17;14.67;;;19.80;1.00;;;;;;5101072;28;20540;-79
2021/07/16 02:22:33;;;;;;;17.73;16.00;;;19.80;1.00;;;;;;5102197;28;21793;-79
2021/07/16 02:25:00;;;;;;;15.77;14.17;;;19.80;1.00;;;;;;5098191;28;20553;-79
2021/07/16 02:27:26;;;;;;;15.83;14.23;;;19.90;1.00;;;;;;5096609;28;20495;-78
2021/07/16 02:29:53;;;;;;;16.70;15.00;;;19.80;1.00;;;;;;5101371;28;20457;-78
2021/07/16 02:32:21;;;;;;;16.77;15.30;;;19.80;1.00;;;;;;5100003;28;20508;-78
2021/07/16 02:34:48;;;;;;;16.50;15.00;;;19.70;1.00;;;;;;5101371;28;20414;-79
2021/07/16 02:37:14;;;;;;;16.47;15.17;;;19.70;1.00;;;;;;5103449;27;20452;-78
2021/07/16 02:39:41;;;;;;;16.63;15.03;;;19.60;1.00;;;;;;5102201;28;20554;-79
2021/07/16 02:42:08;;;;;;;16.50;15.00;;;19.60;1.00;;;;;;5099466;28;20451;-78
2021/07/16 02:44:34;;;;;;;17.13;15.27;;;19.60;1.00;;;;;;5097140;28;20458;-77
2021/07/16 02:47:01;;;;;;;16.80;15.30;;;19.60;1.00;;;;;;5103972;28;20461;-78
2021/07/16 02:49:29;;;;;;;17.40;15.70;;;19.70;1.00;;;;;;5102436;28;21245;-78
2021/07/16 02:51:56;;;;;;;17.10;15.50;;;19.70;1.00;;;;;;5100180;28;20432;-79
2021/07/16 02:54:22;;;;;;;16.77;15.07;;;19.70;1.00;;;;;;5100104;28;20474;-79
2021/07/16 02:56:49;;;;;;;17.00;15.50;;;19.70;1.00;;;;;;5098835;28;20477;-79
2021/07/16 02:59:16;;;;;;;15.70;14.33;;;19.60;1.00;;;;;;5105657;28;20580;-80
2021/07/16 03:01:55;;;;;;;16.87;15.17;;;19.60;1.00;;;;;;5105046;28;20541;-80
2021/07/16 03:04:22;;;;;;;17.57;15.80;;;19.50;1.00;;;;;;5105291;28;20453;-79
2021/07/16 03:06:50;;;;;;;17.60;15.97;;;19.50;1.00;;;;;;5105092;28;21002;-78
2021/07/16 03:09:17;;;;;;;18.17;16.23;;;19.50;1.00;;;;;;5105086;28;20467;-78
2021/07/16 03:11:44;;;;;;;18.00;15.90;;;19.50;1.00;;;;;;5105155;28;20450;-78
2021/07/16 03:14:10;;;;;;;18.00;16.07;;;19.50;1.00;;;;;;5100871;28;20579;-79
2021/07/16 03:16:37;;;;;;;15.83;14.43;;;19.50;1.00;;;;;;5100573;27;20474;-78
2021/07/16 03:19:04;;;;;;;17.10;15.60;;;19.50;1.00;;;;;;5100191;28;20493;-79
2021/07/16 03:21:31;;;;;;;16.43;14.73;;;19.50;1.00;;;;;;5098122;28;20446;-79
2021/07/16 03:23:59;;;;;;;17.27;15.60;;;19.40;1.00;;;;;;5100944;28;20523;-78
2021/07/16 03:26:26;;;;;;;18.23;16.67;;;19.50;1.00;;;;;;5103269;27;20426;-78
2021/07/16 03:28:53;;;;;;;18.47;16.77;;;19.50;1.00;;;;;;5101358;28;20455;-78
2021/07/16 03:31:19;;;;;;;19.17;17.23;;;19.50;1.00;;;;;;5105446;28;20414;-78
2021/07/16 03:33:46;;;;;;;21.93;19.97;;;19.50;1.00;;;;;;5100492;28;20456;-79
2021/07/16 03:36:13;;;;;;;18.07;16.40;;;19.50;1.00;;;;;;5097730;28;20450;-79
2021/07/16 03:38:40;;;;;;;18.67;16.97;;;19.50;1.00;;;;;;5101352;27;21288;-79
2021/07/16 03:41:09;;;;;;;20.37;18.27;;;19.60;1.00;;;;;;5098387;28;20450;-79
2021/07/16 03:43:36;;;;;;;20.17;18.30;;;19.50;1.00;;;;;;5095662;28;20496;-79
2021/07/16 03:46:03;;;;;;;19.40;17.50;;;19.60;1.00;;;;;;5097235;28;20455;-79
2021/07/16 03:48:32;;;;;;;20.90;18.80;;;19.60;1.00;;;;;;5076597;28;20446;-78
2021/07/16 03:50:58;;;;;;;20.00;18.17;;;19.70;1.00;;;;;;5096311;28;20588;-78
2021/07/16 03:53:25;;;;;;;20.87;18.87;;;19.80;1.00;;;;;;5100097;28;20459;-78
2021/07/16 03:55:51;;;;;;;20.57;18.53;;;19.80;1.00;;;;;;5097549;28;20550;-79
2021/07/16 03:58:19;;;;;;;17.33;15.73;;;19.80;1.00;;;;;;5093858;28;20438;-78
2021/07/16 04:00:46;;;;;;;19.70;17.97;;;19.80;1.00;;;;;;5098154;28;20533;-78
2021/07/16 04:03:15;;;;;;;18.30;16.70;;;19.70;1.00;;;;;;5098054;28;20441;-78
2021/07/16 04:05:42;;;;;;;19.97;18.07;;;19.80;1.00;;;;;;5100224;28;20529;-78
2021/07/16 04:08:15;;;;;;;20.13;18.27;;;19.80;1.00;;;;;;5099379;28;20455;-78
2021/07/16 04:10:41;;;;;;;19.90;18.20;;;19.80;1.00;;;;;;5100082;27;21044;-77
2021/07/16 04:13:11;;;;;;;20.93;18.80;;;19.90;1.00;;;;;;5099337;28;20535;-78
2021/07/16 04:15:40;;;;;;;21.00;19.10;;;19.90;1.00;;;;;;5099284;28;20484;-79
2021/07/16 04:18:08;;;;;;;20.17;18.37;;;19.90;1.00;;;;;;5095477;28;20526;-78
2021/07/16 04:20:36;;;;;;;19.80;17.93;;;20.00;1.00;;;;;;5102937;28;20483;-79
2021/07/16 04:23:04;;;;;;;18.70;17.10;;;20.00;1.00;;;;;;5096109;28;21149;-78
2021/07/16 04:25:32;;;;;;;20.50;15.80;;;20.00;1.00;;;;;;5094825;27;20458;-78
2021/07/16 04:28:00;;;;;;;19.93;18.17;;;20.00;1.00;;;;;;5099789;27;20864;-78
2021/07/16 04:30:28;;;;;;;19.60;17.83;;;20.00;1.00;;;;;;5102428;27;20465;-78
2021/07/16 04:32:59;;;;;;;20.63;18.50;;;20.00;1.00;;;;;;5102365;28;20489;-79
2021/07/16 04:35:26;;;;;;;20.20;18.17;;;20.00;1.00;;;;;;5101366;28;21198;-80
2021/07/16 04:37:54;;;;;;;19.33;17.50;;;20.10;1.00;;;;;;5106905;28;20532;-79
2021/07/16 04:40:22;;;;;;;18.27;16.40;;;20.10;1.00;;;;;;5104365;28;20457;-78
2021/07/16 04:42:50;;;;;;;18.83;17.13;;;20.10;1.00;;;;;;5100856;28;20410;-79
2021/07/16 04:45:16;;;;;;;18.33;16.43;;;20.20;1.00;;;;;;5105447;28;20455;-78
2021/07/16 04:47:44;;;;;;;20.97;18.13;;;20.30;1.00;;;;;;5098165;28;20469;-76
2021/07/16 04:50:16;;;;;;;19.47;17.53;;;20.30;1.00;;;;;;5097313;28;20435;-78
2021/07/16 04:52:45;;;;;;;21.90;19.70;;;20.40;1.00;;;;;;5083319;28;20470;-78
2021/07/16 04:55:14;;;;;;;20.80;18.90;;;20.40;1.00;;;;;;5100754;28;20528;-79
2021/07/16 04:57:41;;;;;;;21.30;19.10;;;20.50;1.00;;;;;;5096058;28;21227;-78
2021/07/16 05:00:10;;;;;;;19.93;17.83;;;20.60;1.00;;;;;;5099087;28;20506;-78
2021/07/16 05:02:37;;;;;;;19.53;17.83;;;20.70;1.00;;;;;;5098867;28;20466;-78
2021/07/16 05:05:04;;;;;;;19.30;17.37;;;20.70;1.00;;;;;;5100893;28;21246;-77
2021/07/16 05:07:33;;;;;;;20.73;18.47;;;20.80;1.00;;;;;;5105101;27;20545;-78
2021/07/16 05:10:03;;;;;;;21.10;18.93;;;20.90;1.00;;;;;;5099147;27;20463;-80
2021/07/16 05:12:30;;;;;;;29.63;19.77;;;20.90;1.00;;;;;;5089074;28;20409;-81
2021/07/16 05:14:57;;;;;;;22.07;18.77;;;21.00;1.00;;;;;;5103095;27;20551;-80
2021/07/16 05:17:23;;;;;;;19.83;18.03;;;21.10;1.00;;;;;;5103541;27;20870;-80
2021/07/16 05:19:50;;;;;;;22.00;19.80;;;21.10;1.00;;;;;;5106322;27;20476;-81
2021/07/16 05:22:17;;;;;;;18.67;16.80;;;21.20;1.00;;;;;;5104290;28;20452;-68
2021/07/16 05:24:45;;;;;;;17.80;16.10;;;21.40;1.00;;;;;;5095881;28;21132;-68
2021/07/16 05:27:11;;;;;;;17.37;15.77;;;21.50;1.00;;;;;;5095797;27;20442;-67
2021/07/16 05:29:38;;;;;;;18.63;15.43;;;21.80;1.00;;;;;;5097272;28;21073;-71
2021/07/16 05:32:06;;;;;;;14.97;13.50;;;22.00;1.00;;;;;;5094799;28;20471;-69
2021/07/16 05:34:33;;;;;;;16.80;13.83;;;22.10;1.00;;;;;;5085696;28;24431;-69
2021/07/16 05:36:59;;;;;;;14.97;13.57;;;22.20;1.00;;;;;;5086854;28;20461;-68
2021/07/16 05:39:27;;;;;;;15.70;13.30;;;22.40;1.00;;;;;;5091649;28;20459;-68
2021/07/16 05:41:55;;;;;;;17.10;15.40;;;22.50;1.00;;;;;;5093872;28;20543;-68
2021/07/16 05:44:22;;;;;;;16.23;13.47;;;22.70;1.00;;;;;;5096322;28;20604;-68
2021/07/16 05:46:49;;;;;;;16.00;14.20;;;22.80;1.00;;;;;;5097262;27;20471;-68
2021/07/16 05:49:16;;;;;;;14.27;12.77;;;22.90;1.00;;;;;;5093549;28;20434;-69
2021/07/16 05:51:42;;;;;;;22.03;14.83;;;22.90;1.00;;;;;;5091586;28;20453;-69
2021/07/16 05:54:09;;;;;;;14.00;12.53;;;23.00;1.00;;;;;;5091347;28;20971;-70
2021/07/16 05:56:40;;;;;;;15.80;12.63;;;23.10;1.00;;;;;;5089931;28;20533;-70
2021/07/16 05:59:08;;;;;;;14.43;13.17;;;23.30;1.00;;;;;;5094418;27;20466;-70
2021/07/16 06:01:34;;;;;;;23.10;21.07;;;23.30;1.00;;;;;;5095382;28;20560;-70
2021/07/16 06:04:09;;;;;;;15.70;14.27;;;23.30;1.00;;;;;;5067860;28;20501;-71
2021/07/16 06:06:36;;;;;;;14.43;13.03;;;23.40;1.00;;;;;;5088197;28;20543;-80
2021/07/16 06:09:03;;;;;;;15.90;12.87;;;23.40;1.00;;;;;;5095762;27;20440;-81
2021/07/16 06:11:31;;;;;;;16.13;14.53;;;23.50;1.00;;;;;;5102252;28;20929;-81
2021/07/16 06:13:58;;;;;;;15.57;13.97;;;23.50;1.00;;;;;;5096721;27;20511;-80
2021/07/16 06:16:27;;;;;;;15.30;13.57;;;23.60;1.00;;;;;;5095109;28;20438;-80
2021/07/16 06:18:53;;;;;;;14.90;13.30;;;23.70;1.00;;;;;;5092076;27;20462;-80
2021/07/16 06:21:20;;;;;;;14.47;13.07;;;23.80;1.00;;;;;;5100521;27;21314;-81
2021/07/16 06:23:47;;;;;;;17.97;14.60;;;23.90;1.00;;;;;;5079006;28;20528;-79
2021/07/16 06:26:14;;;;;;;15.60;14.20;;;24.00;1.00;;;;;;5093188;27;20493;-81
2021/07/16 06:28:41;;;;;;;15.77;14.17;;;24.00;1.00;;;;;;5095733;28;20478;-81
2021/07/16 06:31:07;;;;;;;16.40;14.70;;;24.00;1.00;;;;;;5097762;27;20540;-80
2021/07/16 06:33:35;;;;;;;15.70;14.40;;;24.00;1.00;;;;;;5098888;28;20452;-78
2021/07/16 06:36:02;;;;;;;17.87;14.57;;;24.10;1.00;;;;;;5087157;28;20462;-81
2021/07/16 06:38:29;;;;;;;13.50;12.37;;;24.30;1.00;;;;;;5104413;27;20468;-81
2021/07/16 06:40:56;;;;;;;23.23;19.50;;;24.30;1.00;;;;;;5104633;28;20465;-80
2021/07/16 06:43:22;;;;;;;14.67;13.37;;;24.40;1.00;;;;;;5100353;28;21097;-81
2021/07/16 06:45:49;;;;;;;14.20;12.80;;;24.40;1.00;;;;;;5100765;27;20438;-81
2021/07/16 06:48:15;;;;;;;21.80;19.70;;;24.40;1.00;;;;;;5099830;28;20485;-82
2021/07/16 06:50:43;;;;;;;14.67;12.50;;;24.50;1.00;;;;;;5100805;28;20460;-78
2021/07/16 06:53:10;;;;;;;14.87;12.80;;;24.60;1.00;;;;;;5098403;28;21909;-81
2021/07/16 06:55:37;;;;;;;14.70;13.30;;;24.60;1.00;;;;;;5099640;28;20443;-81
2021/07/16 06:58:04;;;;;;;14.23;12.83;;;24.70;1.00;;;;;;5103563;27;20469;-80
2021/07/16 07:00:33;;;;;;;13.30;12.03;;;24.80;1.00;;;;;;5115346;28;20448;-80
2021/07/16 07:03:00;;;;;;;13.73;12.60;;;24.80;1.00;;;;;;5107887;27;20448;-81
2021/07/16 07:05:27;;;;;;;18.23;13.50;;;24.90;1.00;;;;;;5110010;28;20447;-79
2021/07/16 07:07:55;;;;;;;13.60;12.20;;;25.00;1.00;;;;;;5115914;28;20522;-78
2021/07/16 07:10:21;;;;;;;12.47;11.17;;;25.10;1.00;;;;;;5109098;28;20446;-80
2021/07/16 07:12:48;;;;;;;11.30;10.30;;;25.20;1.00;;;;;;5115213;28;20456;-80
2021/07/16 07:15:15;;;;;;;13.10;11.83;;;25.30;1.00;;;;;;5115514;27;20567;-82
2021/07/16 07:17:43;;;;;;;13.30;12.07;;;25.30;1.00;;;;;;5108284;28;20483;-79
2021/07/16 07:20:11;;;;;;;13.43;12.20;;;25.40;1.00;;;;;;5108414;28;20912;-82
2021/07/16 07:22:38;;;;;;;12.13;10.90;;;25.50;1.00;;;;;;5097287;28;20466;-81
2021/07/16 07:25:08;;;;;;;23.10;20.90;;;25.50;1.00;;;;;;5095778;27;20458;-82
2021/07/16 07:27:34;;;;;;;13.70;12.50;;;25.50;1.00;;;;;;5088937;27;20451;-81
2021/07/16 07:30:01;;;;;;;11.07;10.00;;;25.60;1.00;;;;;;5098152;27;20444;-80
2021/07/16 07:32:28;;;;;;;11.17;10.17;;;25.70;1.00;;;;;;5092677;28;20447;-81
2021/07/16 07:34:55;;;;;;;11.57;10.73;;;25.70;1.00;;;;;;5095369;28;21237;-81
2021/07/16 07:37:22;;;;;;;13.07;11.87;;;25.80;1.00;;;;;;5093387;28;20438;-82
2021/07/16 07:39:48;;;;;;;10.57;9.50;;;25.90;1.00;;;;;;5077965;28;20470;-82
2021/07/16 07:42:21;;;;;;;11.23;10.30;;;26.00;1.00;;;;;;5097396;28;20458;-83
2021/07/16 07:44:48;;;;;;;11.97;10.70;;;26.10;1.00;;;;;;5094899;28;20447;-83
2021/07/16 07:47:15;;;;;;;10.87;9.77;;;26.10;1.00;;;;;;5092947;28;20487;-83
2021/07/16 07:49:41;;;;;;;10.70;9.80;;;26.20;1.00;;;;;;5094696;28;20547;-82
2021/07/16 07:52:08;;;;;;;10.27;9.27;;;26.40;1.00;;;;;;5094078;27;20510;-80
2021/07/16 07:54:35;;;;;;;14.60;12.10;;;26.40;1.00;;;;;;5094528;27;21055;-81
2021/07/16 07:57:02;;;;;;;12.37;11.20;;;26.50;1.00;;;;;;5092443;28;21301;-79
2021/07/16 07:59:30;;;;;;;12.27;11.03;;;26.50;1.00;;;;;;5098145;28;20519;-80
2021/07/16 08:01:59;;;;;;;12.10;10.80;;;26.50;1.00;;;;;;5100412;27;20475;-81
2021/07/16 08:04:25;;;;;;;13.27;12.00;;;26.60;1.00;;;;;;5102602;28;23056;-80
2021/07/16 08:06:52;;;;;;;13.37;11.90;;;26.70;1.00;;;;;;5098709;28;20461;-81
2021/07/16 08:09:19;;;;;;;11.87;11.00;;;26.90;1.00;;;;;;5096723;28;20444;-82
2021/07/16 08:11:46;;;;;;;11.70;10.60;;;27.10;1.00;;;;;;5100887;27;20473;-83
2021/07/16 08:14:13;;;;;;;12.10;11.00;;;27.40;1.00;;;;;;5105990;28;20471;-81
2021/07/16 08:16:46;;;;;;;12.27;11.10;;;27.70;1.00;;;;;;5098227;28;20497;-81
2021/07/16 08:19:17;;;;;;;11.10;10.10;;;27.90;1.00;;;;;;5118790;27;20411;-83
2021/07/16 08:21:47;;;;;;;11.60;10.40;;;28.00;1.00;;;;;;5120391;27;20422;-84
2021/07/16 08:24:14;;;;;;;12.57;11.27;;;28.10;1.00;;;;;;5114561;27;20439;-78
2021/07/16 08:26:41;;;;;;;13.00;10.37;;;28.10;1.00;;;;;;5112513;28;22006;-78
2021/07/16 08:29:09;;;;;;;11.60;10.53;;;28.20;1.00;;;;;;5107579;27;20423;-79
2021/07/16 08:31:35;;;;;;;11.70;10.80;;;28.20;1.00;;;;;;5106402;28;20552;-80
2021/07/16 08:34:04;;;;;;;11.50;10.50;;;28.20;1.00;;;;;;5105262;28;20429;-79
2021/07/16 08:36:31;;;;;;;16.67;12.17;;;28.30;1.00;;;;;;5105136;27;20742;-79
2021/07/16 08:38:57;;;;;;;11.13;10.03;;;28.50;1.00;;;;;;5107244;28;20455;-79
2021/07/16 08:41:24;;;;;;;11.70;10.80;;;28.70;1.00;;;;;;5093928;27;20467;-79
2021/07/16 08:43:52;;;;;;;11.53;10.43;;;28.90;1.00;;;;;;5095916;27;20427;-79
2021/07/16 08:46:20;;;;;;;13.13;10.83;;;29.10;1.00;;;;;;5095199;28;20450;-77
2021/07/16 08:48:48;;;;;;;11.70;10.60;;;29.20;1.00;;;;;;5096045;28;20497;-78
2021/07/16 08:51:19;;;;;;;12.03;10.97;;;29.20;1.00;;;;;;5099421;28;20515;-79
2021/07/16 08:53:47;;;;;;;13.07;12.07;;;29.30;1.00;;;;;;5097193;28;20470;-78
2021/07/16 08:56:15;;;;;;;13.57;12.40;;;29.30;1.00;;;;;;5096244;28;20576;-78
2021/07/16 08:58:42;;;;;;;14.03;12.53;;;29.30;1.00;;;;;;5095619;28;20497;-78
2021/07/16 09:01:10;;;;;;;13.00;11.60;;;29.40;1.00;;;;;;5098014;28;20483;-78
2021/07/16 09:03:37;;;;;;;13.30;12.00;;;29.50;1.00;;;;;;5099364;28;20453;-79
2021/07/16 09:06:06;;;;;;;12.50;11.50;;;29.50;1.00;;;;;;5094189;28;20473;-79
2021/07/16 09:08:34;;;;;;;13.50;12.43;;;29.70;1.00;;;;;;5095126;28;20455;-78
2021/07/16 09:11:01;;;;;;;13.60;12.40;;;29.50;1.00;;;;;;5086729;28;20464;-78
2021/07/16 09:13:30;;;;;;;15.27;13.87;;;29.50;1.00;;;;;;5094198;27;20472;-78
2021/07/16 09:15:59;;;;;;;13.53;12.13;;;29.30;1.00;;;;;;5091935;28;21805;-78
2021/07/16 09:18:29;;;;;;;14.00;12.60;;;29.40;1.00;;;;;;5095703;28;20457;-80
2021/07/16 09:21:10;;;;;;;12.67;11.37;;;29.50;1.00;;;;;;5100642;28;20472;-80
2021/07/16 09:23:40;;;;;;;14.77;13.37;;;29.70;1.00;;;;;;5095176;28;20444;-80
2021/07/16 09:26:10;;;;;;;13.50;12.40;;;29.80;1.00;;;;;;5095256;27;21193;-79
2021/07/16 09:28:39;;;;;;;14.17;12.93;;;29.90;1.00;;;;;;5092533;28;20456;-82
2021/07/16 09:31:11;;;;;;;13.63;12.43;;;29.90;1.00;;;;;;5097757;27;20573;-81
2021/07/16 09:33:45;;;;;;;12.57;11.47;;;29.80;1.00;;;;;;5093300;27;20458;-81
2021/07/16 09:36:21;;;;;;;14.27;12.07;;;29.80;1.00;;;;;;5094762;28;21332;-81
2021/07/16 09:38:52;;;;;;;14.60;13.30;;;29.90;1.00;;;;;;5091756;28;20484;-81
2021/07/16 09:41:18;;;;;;;13.40;12.20;;;30.30;1.00;;;;;;5093974;28;21590;-80
2021/07/16 09:43:50;;;;;;;12.53;11.47;;;31.10;1.00;;;;;;5094388;28;24191;-79
2021/07/16 09:46:17;;;;;;;11.93;10.83;;;32.50;1.00;;;;;;5094965;28;20464;-79
2021/07/16 09:48:44;;;;;;;11.83;10.83;;;33.90;1.00;;;;;;5096273;27;20577;-78
2021/07/16 09:51:14;;;;;;;13.60;12.60;;;35.20;1.00;;;;;;5096500;27;21555;-78
2021/07/16 09:53:42;;;;;;;10.90;10.00;;;36.50;1.00;;;;;;5096242;28;20989;-78
2021/07/16 09:56:16;;;;;;;12.53;11.23;;;37.20;1.00;;;;;;5096482;28;21188;-77
2021/07/16 09:58:43;;;;;;;12.83;11.47;;;37.00;1.00;;;;;;5097081;27;20541;-78
2021/07/16 10:01:12;;;;;;;13.73;11.90;;;37.00;1.00;;;;;;5094517;28;20475;-78
2021/07/16 10:03:40;;;;;;;10.83;9.83;;;36.50;1.00;;;;;;5064817;22;20605;-80
2021/07/16 10:06:11;;;;;;;10.93;10.03;;;36.40;1.00;;;;;;5031132;28;20469;-76
2021/07/16 10:08:39;;;;;;;10.90;10.10;;;36.70;1.00;;;;;;5038514;28;20453;-78
2021/07/16 10:11:07;;;;;;;10.17;9.27;;;36.70;1.00;;;;;;5040906;28;20420;-75
2021/07/16 10:13:38;;;;;;;11.50;10.50;;;36.80;1.00;;;;;;5061561;27;20460;-76
2021/07/16 10:16:06;;;;;;;11.70;10.70;;;37.20;1.00;;;;;;5071538;28;20463;-75
2021/07/16 10:18:33;;;;;;;10.50;9.60;;;37.70;1.00;;;;;;5061594;28;21062;-76
2021/07/16 10:21:00;;;;;;;11.43;9.80;;;38.00;1.00;;;;;;5067014;28;20482;-76
2021/07/16 10:23:28;;;;;;;10.70;9.30;;;38.50;1.00;;;;;;5074973;28;20397;-76
2021/07/16 10:25:57;;;;;;;13.83;10.87;;;39.20;1.00;;;;;;5073097;28;20409;-77
2021/07/16 10:28:40;;;;;;;9.83;8.93;;;39.80;1.00;;;;;;5064962;28;20440;-76
2021/07/16 10:31:39;;;;;;;9.60;8.90;;;39.60;1.00;;;;;;5070085;28;20428;-77
2021/07/16 10:34:28;;;;;;;10.90;10.00;;;38.80;1.00;;;;;;5075563;28;20408;-75
2021/07/16 10:36:58;;;;;;;11.97;10.73;;;37.30;1.00;;;;;;5070132;28;20393;-75
2021/07/16 10:39:52;;;;;;;11.60;10.50;;;35.90;1.00;;;;;;5067806;28;20427;-76
2021/07/16 10:42:43;;;;;;;11.00;10.00;;;35.60;1.00;;;;;;5072074;28;20440;-76
2021/07/16 10:45:13;;;;;;;10.87;10.07;;;35.70;1.00;;;;;;5065971;28;20404;-76
2021/07/16 10:47:42;;;;;;;10.43;9.53;;;35.50;1.00;;;;;;5048943;28;20444;-77
2021/07/16 10:50:11;;;;;;;10.30;9.50;;;35.00;1.00;;;;;;5052298;28;20466;-77
2021/07/16 10:52:43;;;;;;;10.00;9.20;;;35.30;1.00;;;;;;5055437;28;20550;-76
2021/07/16 10:55:11;;;;;;;11.50;9.30;;;36.40;1.00;;;;;;5050821;28;20440;-77
2021/07/16 10:57:42;;;;;;;9.80;8.80;;;37.40;1.00;;;;;;5037951;28;20463;-79
2021/07/16 11:00:13;;;;;;;12.63;10.30;;;38.00;1.00;;;;;;5041654;28;20566;-76
2021/07/16 11:02:49;;;;;;;10.10;9.20;;;38.00;1.00;;;;;;5041113;28;20582;-75
2021/07/16 11:05:53;;;;;;;8.83;8.03;;;37.40;1.00;;;;;;5047400;28;20834;-76
2021/07/16 11:09:02;;;;;;;9.53;8.50;;;36.70;1.00;;;;;;5043893;28;20539;-78
2021/07/16 11:11:38;;;;;;;9.10;8.20;;;36.30;1.00;;;;;;5035413;28;20484;-78
2021/07/16 11:14:06;;;;;;;8.83;8.13;;;37.10;1.00;;;;;;5042967;28;21222;-76
2021/07/16 11:16:43;;;;;;;10.43;8.50;;;38.10;1.00;;;;;;5039543;28;20650;-78
2021/07/16 11:19:25;;;;;;;9.50;8.60;;;39.00;1.00;;;;;;5034314;28;20442;-77
2021/07/16 11:22:04;;;;;;;10.03;9.13;;;40.00;1.00;;;;;;5039590;28;20969;-76
2021/07/16 11:24:33;;;;;;;9.13;8.33;;;40.80;1.00;;;;;;5024939;28;20449;-74
2021/07/16 11:27:03;;;;;;;8.37;7.77;;;41.50;1.00;;;;;;5028987;28;20464;-78
2021/07/16 11:29:34;;;;;;;9.10;8.30;;;42.10;1.00;;;;;;5031814;28;20418;-78
2021/07/16 11:32:04;;;;;;;8.47;7.83;;;42.70;1.00;;;;;;5027834;28;20480;-77
2021/07/16 11:34:31;;;;;;;9.53;8.73;;;43.10;1.00;;;;;;5032610;28;20545;-77
2021/07/16 11:36:58;;;;;;;9.13;8.33;;;43.10;1.00;;;;;;5032548;28;20440;-76
2021/07/16 11:39:29;;;;;;;10.80;8.80;;;42.80;1.00;;;;;;5035241;28;20460;-75
2021/07/16 11:41:56;;;;;;;9.93;8.20;;;41.60;1.00;;;;;;5032495;28;20488;-76
2021/07/16 11:44:27;;;;;;;8.93;8.10;;;40.10;1.00;;;;;;5035396;28;21744;-78
2021/07/16 11:46:56;;;;;;;11.33;8.27;;;38.70;1.00;;;;;;5042337;28;20457;-76
2021/07/16 11:49:29;;;;;;;10.30;8.77;;;37.80;1.00;;;;;;5019524;28;20449;-77
2021/07/16 11:52:00;;;;;;;8.70;8.00;;;37.50;1.00;;;;;;5026900;28;20550;-75
2021/07/16 11:54:29;;;;;;;18.43;9.27;;;37.20;1.00;;;;;;5004920;28;20579;-77
2021/07/16 11:56:57;;;;;;;10.60;9.47;;;36.70;1.00;;;;;;5018946;28;20449;-75
2021/07/16 11:59:25;;;;;;;9.53;8.40;;;36.20;1.00;;;;;;5034628;28;21050;-73
2021/07/16 12:02:09;;;;;;;8.27;7.57;;;35.80;1.00;;;;;;5023421;28;20456;-77
2021/07/16 12:04:37;;;;;;;8.90;8.00;;;36.90;1.00;;;;;;5032144;28;20460;-76
2021/07/16 12:07:04;;;;;;;11.03;8.33;;;38.40;1.00;;;;;;5012108;28;21220;-77
2021/07/16 12:09:32;;;;;;;9.03;8.23;;;39.80;1.00;;;;;;5038763;28;20510;-76
2021/07/16 12:12:04;;;;;;;7.60;6.90;;;40.90;1.00;;;;;;5026294;28;20452;-76
2021/07/16 12:14:47;;;;;;;8.80;7.33;;;42.00;1.00;;;;;;5033030;28;20555;-77
2021/07/16 12:17:14;;;;;;;7.40;6.80;;;42.80;1.00;;;;;;5029612;28;20448;-77
2021/07/16 12:19:43;;;;;;;7.97;7.10;;;43.50;1.00;;;;;;5039084;28;20551;-79
2021/07/16 12:22:12;;;;;;;7.20;6.50;;;43.80;1.00;;;;;;5030867;28;20459;-75
2021/07/16 12:24:41;;;;;;;9.00;8.20;;;44.10;1.00;;;;;;5030526;28;20462;-76
2021/07/16 12:27:09;;;;;;;6.87;6.30;;;44.10;1.00;;;;;;5029761;28;20461;-75
2021/07/16 12:29:36;;;;;;;7.57;6.00;;;44.10;1.00;;;;;;5030093;28;20459;-79
2021/07/16 12:32:03;;;;;;;7.43;6.60;;;44.10;1.00;;;;;;5030416;28;20546;-76
2021/07/16 12:34:29;;;;;;;5.77;5.27;;;44.00;1.00;;;;;;5024972;28;20544;-76
2021/07/16 12:37:14;;;;;;;6.30;5.70;;;43.60;1.00;;;;;;5030145;28;21673;-76
2021/07/16 12:39:43;;;;;;;7.30;6.63;;;42.60;1.00;;;;;;5028077;28;20452;-80
2021/07/16 12:42:11;;;;;;;7.40;6.80;;;41.60;1.00;;;;;;5031936;28;20485;-78
2021/07/16 12:44:39;;;;;;;6.83;6.07;;;41.50;1.00;;;;;;5037084;28;21495;-76
2021/07/16 12:47:06;;;;;;;7.20;6.50;;;42.20;1.00;;;;;;5028722;28;20432;-76
2021/07/16 12:49:33;;;;;;;6.80;6.20;;;42.90;1.00;;;;;;5038095;28;20448;-75